sensor_id;sensor_type;location;lat;lon;timestamp;P1;durP1;ratioP1;P2;durP2;ratioP2
73859;SDS011;62197;51.632;13.700;2023-05-23T00:00:33;5.15;;;3.35;;
73859;SDS011;62197;51.632;13.700;2023-05-23T00:03:00;6.82;;;3.63;;
73859;SDS011;62197;51.632;13.700;2023-05-23T00:05:26;5.72;;;3.40;;
73859;SDS011;62197;51.632;13.700;2023-05-23T00:07:53;4.72;;;3.33;;
73859;SDS011;62197;51.632;13.700;2023-05-23T00:10:18;5.90;;;3.35;;
73859;SDS011;62197;51.632;13.700;2023-05-23T00:12:43;7.38;;;4.18;;
73859;SDS011;62197;51.632;13.700;2023-05-23T00:15:12;7.95;;;3.88;;
73859;SDS011;62197;51.632;13.700;2023-05-23T00:17:37;7.03;;;3.88;;
73859;SDS011;62197;51.632;13.700;2023-05-23T00:20:03;7.97;;;3.95;;
73859;SDS011;62197;51.632;13.700;2023-05-23T00:22:36;5.63;;;3.42;;
73859;SDS011;62197;51.632;13.700;2023-05-23T00:25:03;8.15;;;3.60;;
73859;SDS011;62197;51.632;13.700;2023-05-23T00:27:30;6.60;;;3.67;;
73859;SDS011;62197;51.632;13.700;2023-05-23T00:29:55;5.68;;;4.22;;
73859;SDS011;62197;51.632;13.700;2023-05-23T00:32:20;6.63;;;3.60;;
73859;SDS011;62197;51.632;13.700;2023-05-23T00:34:46;8.85;;;3.72;;
73859;SDS011;62197;51.632;13.700;2023-05-23T00:37:12;6.40;;;3.65;;
73859;SDS011;62197;51.632;13.700;2023-05-23T00:39:37;7.35;;;3.50;;
73859;SDS011;62197;51.632;13.700;2023-05-23T00:42:03;5.32;;;3.95;;
73859;SDS011;62197;51.632;13.700;2023-05-23T00:44:30;8.40;;;4.05;;
73859;SDS011;62197;51.632;13.700;2023-05-23T00:46:55;6.50;;;3.50;;
73859;SDS011;62197;51.632;13.700;2023-05-23T00:49:22;6.15;;;4.00;;
73859;SDS011;62197;51.632;13.700;2023-05-23T00:51:47;5.47;;;3.67;;
73859;SDS011;62197;51.632;13.700;2023-05-23T00:54:14;7.18;;;3.85;;
73859;SDS011;62197;51.632;13.700;2023-05-23T00:56:43;5.72;;;4.03;;
73859;SDS011;62197;51.632;13.700;2023-05-23T00:59:08;6.68;;;3.78;;
73859;SDS011;62197;51.632;13.700;2023-05-23T01:01:34;6.50;;;3.70;;
73859;SDS011;62197;51.632;13.700;2023-05-23T01:04:01;6.32;;;3.92;;
73859;SDS011;62197;51.632;13.700;2023-05-23T01:06:28;7.30;;;3.90;;
73859;SDS011;62197;51.632;13.700;2023-05-23T01:08:54;6.28;;;3.70;;
73859;SDS011;62197;51.632;13.700;2023-05-23T01:11:22;7.80;;;3.80;;
73859;SDS011;62197;51.632;13.700;2023-05-23T01:13:58;7.18;;;4.03;;
73859;SDS011;62197;51.632;13.700;2023-05-23T01:16:31;7.28;;;3.50;;
73859;SDS011;62197;51.632;13.700;2023-05-23T01:21:40;7.15;;;3.92;;
73859;SDS011;62197;51.632;13.700;2023-05-23T01:25:10;4.80;;;3.20;;
73859;SDS011;62197;51.632;13.700;2023-05-23T01:27:47;4.53;;;3.17;;
73859;SDS011;62197;51.632;13.700;2023-05-23T01:30:14;5.10;;;3.40;;
73859;SDS011;62197;51.632;13.700;2023-05-23T01:32:43;5.72;;;3.63;;
73859;SDS011;62197;51.632;13.700;2023-05-23T01:35:10;6.20;;;4.00;;
73859;SDS011;62197;51.632;13.700;2023-05-23T01:37:36;5.70;;;3.85;;
73859;SDS011;62197;51.632;13.700;2023-05-23T01:40:01;6.18;;;4.03;;
73859;SDS011;62197;51.632;13.700;2023-05-23T01:42:27;7.15;;;4.00;;
73859;SDS011;62197;51.632;13.700;2023-05-23T01:44:52;8.70;;;3.97;;
73859;SDS011;62197;51.632;13.700;2023-05-23T01:47:18;10.23;;;3.75;;
73859;SDS011;62197;51.632;13.700;2023-05-23T01:49:45;6.03;;;3.85;;
73859;SDS011;62197;51.632;13.700;2023-05-23T01:52:11;6.95;;;3.70;;
73859;SDS011;62197;51.632;13.700;2023-05-23T01:54:39;7.30;;;3.95;;
73859;SDS011;62197;51.632;13.700;2023-05-23T01:57:06;8.00;;;4.50;;
73859;SDS011;62197;51.632;13.700;2023-05-23T01:59:31;6.05;;;4.03;;
73859;SDS011;62197;51.632;13.700;2023-05-23T02:01:57;5.72;;;4.03;;
73859;SDS011;62197;51.632;13.700;2023-05-23T02:04:22;7.70;;;4.13;;
73859;SDS011;62197;51.632;13.700;2023-05-23T02:06:47;7.57;;;4.10;;
73859;SDS011;62197;51.632;13.700;2023-05-23T02:09:13;8.82;;;3.88;;
73859;SDS011;62197;51.632;13.700;2023-05-23T02:11:38;6.88;;;4.30;;
73859;SDS011;62197;51.632;13.700;2023-05-23T02:14:03;6.38;;;3.85;;
73859;SDS011;62197;51.632;13.700;2023-05-23T02:16:29;5.47;;;3.70;;
73859;SDS011;62197;51.632;13.700;2023-05-23T02:18:54;7.40;;;4.50;;
73859;SDS011;62197;51.632;13.700;2023-05-23T02:21:20;7.50;;;4.30;;
73859;SDS011;62197;51.632;13.700;2023-05-23T02:23:47;8.27;;;4.32;;
73859;SDS011;62197;51.632;13.700;2023-05-23T02:26:12;6.22;;;3.70;;
73859;SDS011;62197;51.632;13.700;2023-05-23T02:28:38;5.57;;;3.75;;
73859;SDS011;62197;51.632;13.700;2023-05-23T02:31:03;7.20;;;4.35;;
73859;SDS011;62197;51.632;13.700;2023-05-23T02:33:28;6.03;;;3.97;;
73859;SDS011;62197;51.632;13.700;2023-05-23T02:35:54;5.95;;;4.25;;
73859;SDS011;62197;51.632;13.700;2023-05-23T02:38:19;5.53;;;4.18;;
73859;SDS011;62197;51.632;13.700;2023-05-23T02:40:44;8.98;;;4.18;;
73859;SDS011;62197;51.632;13.700;2023-05-23T02:43:10;5.97;;;4.28;;
73859;SDS011;62197;51.632;13.700;2023-05-23T02:45:35;6.97;;;3.90;;
73859;SDS011;62197;51.632;13.700;2023-05-23T02:48:00;8.40;;;4.55;;
73859;SDS011;62197;51.632;13.700;2023-05-23T02:50:26;8.48;;;4.10;;
73859;SDS011;62197;51.632;13.700;2023-05-23T02:52:51;8.88;;;4.65;;
73859;SDS011;62197;51.632;13.700;2023-05-23T02:55:16;5.78;;;3.97;;
73859;SDS011;62197;51.632;13.700;2023-05-23T02:57:42;7.65;;;4.45;;
73859;SDS011;62197;51.632;13.700;2023-05-23T03:00:07;7.95;;;3.97;;
73859;SDS011;62197;51.632;13.700;2023-05-23T03:02:34;7.65;;;5.20;;
73859;SDS011;62197;51.632;13.700;2023-05-23T03:04:59;7.35;;;4.82;;
73859;SDS011;62197;51.632;13.700;2023-05-23T03:07:25;7.53;;;4.47;;
73859;SDS011;62197;51.632;13.700;2023-05-23T03:09:50;6.68;;;4.32;;
73859;SDS011;62197;51.632;13.700;2023-05-23T03:12:16;7.80;;;4.50;;
73859;SDS011;62197;51.632;13.700;2023-05-23T03:14:41;6.45;;;4.45;;
73859;SDS011;62197;51.632;13.700;2023-05-23T03:17:06;7.35;;;4.47;;
73859;SDS011;62197;51.632;13.700;2023-05-23T03:19:32;5.63;;;4.22;;
73859;SDS011;62197;51.632;13.700;2023-05-23T03:21:57;6.30;;;4.55;;
73859;SDS011;62197;51.632;13.700;2023-05-23T03:24:22;6.65;;;4.20;;
73859;SDS011;62197;51.632;13.700;2023-05-23T03:26:48;8.00;;;5.18;;
73859;SDS011;62197;51.632;13.700;2023-05-23T03:29:13;7.82;;;4.60;;
73859;SDS011;62197;51.632;13.700;2023-05-23T03:31:38;6.82;;;4.57;;
73859;SDS011;62197;51.632;13.700;2023-05-23T03:34:04;6.78;;;4.40;;
73859;SDS011;62197;51.632;13.700;2023-05-23T03:36:29;7.10;;;3.80;;
73859;SDS011;62197;51.632;13.700;2023-05-23T03:38:57;6.05;;;3.50;;
73859;SDS011;62197;51.632;13.700;2023-05-23T03:41:22;5.90;;;3.90;;
73859;SDS011;62197;51.632;13.700;2023-05-23T03:43:47;5.93;;;3.80;;
73859;SDS011;62197;51.632;13.700;2023-05-23T03:46:13;8.07;;;4.05;;
73859;SDS011;62197;51.632;13.700;2023-05-23T03:48:39;5.97;;;3.95;;
73859;SDS011;62197;51.632;13.700;2023-05-23T03:51:04;6.45;;;4.50;;
73859;SDS011;62197;51.632;13.700;2023-05-23T03:53:30;6.68;;;3.50;;
73859;SDS011;62197;51.632;13.700;2023-05-23T03:55:55;5.53;;;3.97;;
73859;SDS011;62197;51.632;13.700;2023-05-23T03:58:21;6.82;;;4.55;;
73859;SDS011;62197;51.632;13.700;2023-05-23T04:00:46;5.40;;;4.15;;
73859;SDS011;62197;51.632;13.700;2023-05-23T04:03:11;7.72;;;4.43;;
73859;SDS011;62197;51.632;13.700;2023-05-23T04:05:41;8.25;;;4.10;;
73859;SDS011;62197;51.632;13.700;2023-05-23T04:08:06;6.65;;;4.07;;
73859;SDS011;62197;51.632;13.700;2023-05-23T04:10:32;5.93;;;3.78;;
73859;SDS011;62197;51.632;13.700;2023-05-23T04:12:57;5.28;;;3.58;;
73859;SDS011;62197;51.632;13.700;2023-05-23T04:15:22;7.72;;;3.92;;
73859;SDS011;62197;51.632;13.700;2023-05-23T04:17:48;5.72;;;3.70;;
73859;SDS011;62197;51.632;13.700;2023-05-23T04:20:15;5.95;;;3.40;;
73859;SDS011;62197;51.632;13.700;2023-05-23T04:22:40;5.45;;;3.60;;
73859;SDS011;62197;51.632;13.700;2023-05-23T04:25:06;5.15;;;4.10;;
73859;SDS011;62197;51.632;13.700;2023-05-23T04:27:33;5.68;;;4.20;;
73859;SDS011;62197;51.632;13.700;2023-05-23T04:29:58;7.50;;;4.30;;
73859;SDS011;62197;51.632;13.700;2023-05-23T04:32:24;6.32;;;4.05;;
73859;SDS011;62197;51.632;13.700;2023-05-23T04:34:50;7.38;;;4.07;;
73859;SDS011;62197;51.632;13.700;2023-05-23T04:37:16;4.28;;;3.25;;
73859;SDS011;62197;51.632;13.700;2023-05-23T04:39:45;5.40;;;3.65;;
73859;SDS011;62197;51.632;13.700;2023-05-23T04:42:11;5.43;;;4.20;;
73859;SDS011;62197;51.632;13.700;2023-05-23T04:44:37;6.15;;;3.88;;
73859;SDS011;62197;51.632;13.700;2023-05-23T04:47:02;5.13;;;3.72;;
73859;SDS011;62197;51.632;13.700;2023-05-23T04:49:27;7.15;;;3.83;;
73859;SDS011;62197;51.632;13.700;2023-05-23T04:51:53;6.20;;;3.95;;
73859;SDS011;62197;51.632;13.700;2023-05-23T04:54:18;5.03;;;4.15;;
73859;SDS011;62197;51.632;13.700;2023-05-23T04:56:44;9.90;;;4.30;;
73859;SDS011;62197;51.632;13.700;2023-05-23T04:59:09;6.15;;;4.45;;
73859;SDS011;62197;51.632;13.700;2023-05-23T05:01:35;5.43;;;3.90;;
73859;SDS011;62197;51.632;13.700;2023-05-23T05:04:04;5.78;;;4.28;;
73859;SDS011;62197;51.632;13.700;2023-05-23T05:06:29;6.22;;;4.28;;
73859;SDS011;62197;51.632;13.700;2023-05-23T05:08:55;8.45;;;4.30;;
73859;SDS011;62197;51.632;13.700;2023-05-23T05:11:20;7.60;;;4.05;;
73859;SDS011;62197;51.632;13.700;2023-05-23T05:13:46;5.97;;;4.32;;
73859;SDS011;62197;51.632;13.700;2023-05-23T05:16:11;7.75;;;4.93;;
73859;SDS011;62197;51.632;13.700;2023-05-23T05:18:37;7.45;;;4.72;;
73859;SDS011;62197;51.632;13.700;2023-05-23T05:21:02;6.22;;;4.45;;
73859;SDS011;62197;51.632;13.700;2023-05-23T05:23:29;6.40;;;5.15;;
73859;SDS011;62197;51.632;13.700;2023-05-23T05:25:55;6.50;;;4.90;;
73859;SDS011;62197;51.632;13.700;2023-05-23T05:28:21;10.27;;;5.40;;
73859;SDS011;62197;51.632;13.700;2023-05-23T05:30:47;8.15;;;4.88;;
73859;SDS011;62197;51.632;13.700;2023-05-23T05:33:17;7.68;;;4.47;;
73859;SDS011;62197;51.632;13.700;2023-05-23T05:35:44;7.30;;;5.15;;
73859;SDS011;62197;51.632;13.700;2023-05-23T05:38:09;7.80;;;5.55;;
73859;SDS011;62197;51.632;13.700;2023-05-23T05:40:35;6.57;;;5.57;;
73859;SDS011;62197;51.632;13.700;2023-05-23T05:43:00;6.80;;;4.95;;
73859;SDS011;62197;51.632;13.700;2023-05-23T05:45:25;7.50;;;5.00;;
73859;SDS011;62197;51.632;13.700;2023-05-23T05:47:51;7.80;;;5.43;;
73859;SDS011;62197;51.632;13.700;2023-05-23T05:50:16;7.50;;;5.57;;
73859;SDS011;62197;51.632;13.700;2023-05-23T05:52:43;9.00;;;5.57;;
73859;SDS011;62197;51.632;13.700;2023-05-23T05:55:10;7.75;;;5.30;;
73859;SDS011;62197;51.632;13.700;2023-05-23T05:57:35;7.05;;;5.43;;
73859;SDS011;62197;51.632;13.700;2023-05-23T06:00:03;7.15;;;5.50;;
73859;SDS011;62197;51.632;13.700;2023-05-23T06:02:36;8.85;;;5.07;;
73859;SDS011;62197;51.632;13.700;2023-05-23T06:05:01;7.97;;;5.00;;
73859;SDS011;62197;51.632;13.700;2023-05-23T06:07:26;8.52;;;5.28;;
73859;SDS011;62197;51.632;13.700;2023-05-23T06:09:52;6.10;;;4.60;;
73859;SDS011;62197;51.632;13.700;2023-05-23T06:12:17;8.68;;;5.30;;
73859;SDS011;62197;51.632;13.700;2023-05-23T06:14:42;8.20;;;5.00;;
73859;SDS011;62197;51.632;13.700;2023-05-23T06:17:08;6.63;;;4.43;;
73859;SDS011;62197;51.632;13.700;2023-05-23T06:19:33;7.78;;;4.65;;
73859;SDS011;62197;51.632;13.700;2023-05-23T06:21:58;10.10;;;4.57;;
73859;SDS011;62197;51.632;13.700;2023-05-23T06:24:24;13.70;;;4.90;;
73859;SDS011;62197;51.632;13.700;2023-05-23T06:26:49;8.50;;;5.20;;
73859;SDS011;62197;51.632;13.700;2023-05-23T06:29:14;7.00;;;4.60;;
73859;SDS011;62197;51.632;13.700;2023-05-23T06:31:40;7.75;;;4.72;;
73859;SDS011;62197;51.632;13.700;2023-05-23T06:34:05;6.00;;;4.20;;
73859;SDS011;62197;51.632;13.700;2023-05-23T06:36:30;11.15;;;4.85;;
73859;SDS011;62197;51.632;13.700;2023-05-23T06:38:56;8.00;;;4.80;;
73859;SDS011;62197;51.632;13.700;2023-05-23T06:41:21;7.20;;;4.65;;
73859;SDS011;62197;51.632;13.700;2023-05-23T06:43:46;5.50;;;3.92;;
73859;SDS011;62197;51.632;13.700;2023-05-23T06:46:12;10.13;;;4.32;;
73859;SDS011;62197;51.632;13.700;2023-05-23T06:48:37;12.30;;;4.50;;
73859;SDS011;62197;51.632;13.700;2023-05-23T06:51:03;7.28;;;3.95;;
73859;SDS011;62197;51.632;13.700;2023-05-23T06:53:28;9.18;;;4.15;;
73859;SDS011;62197;51.632;13.700;2023-05-23T06:55:53;15.10;;;5.55;;
73859;SDS011;62197;51.632;13.700;2023-05-23T06:58:20;6.93;;;4.30;;
73859;SDS011;62197;51.632;13.700;2023-05-23T07:00:46;7.75;;;5.10;;
73859;SDS011;62197;51.632;13.700;2023-05-23T07:03:11;6.78;;;4.18;;
73859;SDS011;62197;51.632;13.700;2023-05-23T07:05:36;9.02;;;4.18;;
73859;SDS011;62197;51.632;13.700;2023-05-23T07:08:02;9.13;;;5.15;;
73859;SDS011;62197;51.632;13.700;2023-05-23T07:10:27;9.93;;;4.75;;
73859;SDS011;62197;51.632;13.700;2023-05-23T07:12:52;8.02;;;3.88;;
73859;SDS011;62197;51.632;13.700;2023-05-23T07:15:18;7.47;;;4.80;;
73859;SDS011;62197;51.632;13.700;2023-05-23T07:17:44;8.85;;;4.55;;
73859;SDS011;62197;51.632;13.700;2023-05-23T07:20:09;6.28;;;4.75;;
73859;SDS011;62197;51.632;13.700;2023-05-23T07:22:35;8.25;;;4.75;;
73859;SDS011;62197;51.632;13.700;2023-05-23T07:25:00;6.00;;;4.05;;
73859;SDS011;62197;51.632;13.700;2023-05-23T07:27:26;9.85;;;4.60;;
73859;SDS011;62197;51.632;13.700;2023-05-23T07:29:51;5.85;;;4.00;;
73859;SDS011;62197;51.632;13.700;2023-05-23T07:32:16;5.32;;;4.13;;
73859;SDS011;62197;51.632;13.700;2023-05-23T07:34:42;7.32;;;4.40;;
73859;SDS011;62197;51.632;13.700;2023-05-23T07:37:07;6.35;;;4.45;;
73859;SDS011;62197;51.632;13.700;2023-05-23T07:39:33;8.90;;;5.15;;
73859;SDS011;62197;51.632;13.700;2023-05-23T07:41:58;8.55;;;4.80;;
73859;SDS011;62197;51.632;13.700;2023-05-23T07:44:23;5.28;;;3.85;;
73859;SDS011;62197;51.632;13.700;2023-05-23T07:46:49;7.95;;;4.97;;
73859;SDS011;62197;51.632;13.700;2023-05-23T07:49:14;8.45;;;4.60;;
73859;SDS011;62197;51.632;13.700;2023-05-23T07:51:39;7.22;;;5.25;;
73859;SDS011;62197;51.632;13.700;2023-05-23T07:54:05;8.55;;;4.95;;
73859;SDS011;62197;51.632;13.700;2023-05-23T07:56:31;9.48;;;5.25;;
73859;SDS011;62197;51.632;13.700;2023-05-23T07:58:56;6.82;;;4.30;;
73859;SDS011;62197;51.632;13.700;2023-05-23T08:01:21;8.00;;;4.50;;
73859;SDS011;62197;51.632;13.700;2023-05-23T08:03:49;5.50;;;4.38;;
73859;SDS011;62197;51.632;13.700;2023-05-23T08:06:14;9.85;;;5.70;;
73859;SDS011;62197;51.632;13.700;2023-05-23T08:08:40;7.30;;;5.13;;
73859;SDS011;62197;51.632;13.700;2023-05-23T08:11:07;8.07;;;5.70;;
73859;SDS011;62197;51.632;13.700;2023-05-23T08:13:33;6.95;;;5.13;;
73859;SDS011;62197;51.632;13.700;2023-05-23T08:15:58;7.05;;;5.22;;
73859;SDS011;62197;51.632;13.700;2023-05-23T08:18:23;8.40;;;6.05;;
73859;SDS011;62197;51.632;13.700;2023-05-23T08:20:49;7.00;;;5.07;;
73859;SDS011;62197;51.632;13.700;2023-05-23T08:23:14;7.43;;;4.88;;
73859;SDS011;62197;51.632;13.700;2023-05-23T08:25:41;5.97;;;4.90;;
73859;SDS011;62197;51.632;13.700;2023-05-23T08:28:07;8.38;;;5.07;;
73859;SDS011;62197;51.632;13.700;2023-05-23T08:30:32;8.18;;;4.57;;
73859;SDS011;62197;51.632;13.700;2023-05-23T08:32:58;7.97;;;5.18;;
73859;SDS011;62197;51.632;13.700;2023-05-23T08:35:24;7.80;;;4.55;;
73859;SDS011;62197;51.632;13.700;2023-05-23T08:37:50;7.13;;;5.20;;
73859;SDS011;62197;51.632;13.700;2023-05-23T08:40:19;10.43;;;5.15;;
73859;SDS011;62197;51.632;13.700;2023-05-23T08:42:46;7.82;;;4.43;;
73859;SDS011;62197;51.632;13.700;2023-05-23T08:45:12;6.13;;;4.53;;
73859;SDS011;62197;51.632;13.700;2023-05-23T08:47:38;7.40;;;4.60;;
73859;SDS011;62197;51.632;13.700;2023-05-23T08:50:06;8.30;;;4.80;;
73859;SDS011;62197;51.632;13.700;2023-05-23T08:52:32;9.82;;;5.40;;
73859;SDS011;62197;51.632;13.700;2023-05-23T08:55:01;8.60;;;6.07;;
73859;SDS011;62197;51.632;13.700;2023-05-23T08:57:27;10.38;;;5.30;;
73859;SDS011;62197;51.632;13.700;2023-05-23T08:59:54;7.43;;;5.18;;
73859;SDS011;62197;51.632;13.700;2023-05-23T09:02:20;8.20;;;4.72;;
73859;SDS011;62197;51.632;13.700;2023-05-23T09:04:46;6.53;;;4.88;;
73859;SDS011;62197;51.632;13.700;2023-05-23T09:07:11;5.57;;;4.85;;
73859;SDS011;62197;51.632;13.700;2023-05-23T09:09:40;6.38;;;4.65;;
73859;SDS011;62197;51.632;13.700;2023-05-23T09:12:07;7.18;;;4.60;;
73859;SDS011;62197;51.632;13.700;2023-05-23T09:14:34;6.57;;;4.75;;
73859;SDS011;62197;51.632;13.700;2023-05-23T09:17:01;7.32;;;5.47;;
73859;SDS011;62197;51.632;13.700;2023-05-23T09:19:27;6.15;;;4.57;;
73859;SDS011;62197;51.632;13.700;2023-05-23T09:21:53;7.22;;;5.20;;
73859;SDS011;62197;51.632;13.700;2023-05-23T09:24:18;10.35;;;5.68;;
73859;SDS011;62197;51.632;13.700;2023-05-23T09:26:47;8.63;;;5.85;;
73859;SDS011;62197;51.632;13.700;2023-05-23T09:29:13;6.75;;;5.45;;
73859;SDS011;62197;51.632;13.700;2023-05-23T09:31:38;8.02;;;6.03;;
73859;SDS011;62197;51.632;13.700;2023-05-23T09:34:04;6.78;;;6.07;;
73859;SDS011;62197;51.632;13.700;2023-05-23T09:36:31;8.68;;;6.43;;
73859;SDS011;62197;51.632;13.700;2023-05-23T09:39:00;8.10;;;6.15;;
73859;SDS011;62197;51.632;13.700;2023-05-23T09:41:32;8.02;;;6.80;;
73859;SDS011;62197;51.632;13.700;2023-05-23T09:43:59;8.48;;;6.03;;
73859;SDS011;62197;51.632;13.700;2023-05-23T09:46:29;8.02;;;6.22;;
73859;SDS011;62197;51.632;13.700;2023-05-23T09:48:55;9.13;;;6.10;;
73859;SDS011;62197;51.632;13.700;2023-05-23T09:51:21;9.48;;;6.82;;
73859;SDS011;62197;51.632;13.700;2023-05-23T09:53:47;10.07;;;6.75;;
73859;SDS011;62197;51.632;13.700;2023-05-23T09:56:14;10.60;;;7.50;;
73859;SDS011;62197;51.632;13.700;2023-05-23T09:58:41;11.55;;;8.13;;
73859;SDS011;62197;51.632;13.700;2023-05-23T10:01:08;8.82;;;7.05;;
73859;SDS011;62197;51.632;13.700;2023-05-23T10:03:36;12.07;;;7.95;;
73859;SDS011;62197;51.632;13.700;2023-05-23T10:06:13;12.27;;;8.48;;
73859;SDS011;62197;51.632;13.700;2023-05-23T10:08:55;11.23;;;7.90;;
73859;SDS011;62197;51.632;13.700;2023-05-23T10:13:57;11.40;;;7.35;;
73859;SDS011;62197;51.632;13.700;2023-05-23T10:16:26;12.18;;;7.40;;
73859;SDS011;62197;51.632;13.700;2023-05-23T10:18:59;13.23;;;6.82;;
73859;SDS011;62197;51.632;13.700;2023-05-23T10:21:32;9.25;;;6.30;;
73859;SDS011;62197;51.632;13.700;2023-05-23T10:24:02;8.80;;;6.10;;
73859;SDS011;62197;51.632;13.700;2023-05-23T10:26:28;8.98;;;5.38;;
73859;SDS011;62197;51.632;13.700;2023-05-23T10:28:54;9.02;;;5.43;;
73859;SDS011;62197;51.632;13.700;2023-05-23T10:31:22;8.00;;;5.72;;
73859;SDS011;62197;51.632;13.700;2023-05-23T10:33:55;9.88;;;6.18;;
73859;SDS011;62197;51.632;13.700;2023-05-23T10:36:35;8.18;;;4.95;;
73859;SDS011;62197;51.632;13.700;2023-05-23T10:41:58;8.00;;;5.38;;
73859;SDS011;62197;51.632;13.700;2023-05-23T10:44:30;7.45;;;5.13;;
73859;SDS011;62197;51.632;13.700;2023-05-23T10:49:37;10.48;;;5.40;;
73859;SDS011;62197;51.632;13.700;2023-05-23T10:52:07;10.02;;;5.30;;
73859;SDS011;62197;51.632;13.700;2023-05-23T10:54:43;11.73;;;4.78;;
73859;SDS011;62197;51.632;13.700;2023-05-23T10:57:18;7.80;;;5.20;;
73859;SDS011;62197;51.632;13.700;2023-05-23T10:59:45;6.72;;;5.40;;
73859;SDS011;62197;51.632;13.700;2023-05-23T11:02:14;7.70;;;5.72;;
73859;SDS011;62197;51.632;13.700;2023-05-23T11:04:42;8.95;;;5.68;;
73859;SDS011;62197;51.632;13.700;2023-05-23T11:10:02;6.80;;;5.13;;
73859;SDS011;62197;51.632;13.700;2023-05-23T11:12:36;7.13;;;4.88;;
73859;SDS011;62197;51.632;13.700;2023-05-23T11:15:04;7.68;;;5.43;;
73859;SDS011;62197;51.632;13.700;2023-05-23T11:17:53;6.43;;;5.05;;
73859;SDS011;62197;51.632;13.700;2023-05-23T11:20:20;8.00;;;5.40;;
73859;SDS011;62197;51.632;13.700;2023-05-23T11:22:53;9.13;;;5.25;;
73859;SDS011;62197;51.632;13.700;2023-05-23T11:25:38;8.63;;;5.45;;
73859;SDS011;62197;51.632;13.700;2023-05-23T11:28:04;8.18;;;5.30;;
73859;SDS011;62197;51.632;13.700;2023-05-23T11:30:30;8.88;;;6.00;;
73859;SDS011;62197;51.632;13.700;2023-05-23T11:32:56;8.85;;;6.20;;
73859;SDS011;62197;51.632;13.700;2023-05-23T11:35:21;7.35;;;5.00;;
73859;SDS011;62197;51.632;13.700;2023-05-23T11:37:47;9.57;;;6.07;;
73859;SDS011;62197;51.632;13.700;2023-05-23T11:40:29;7.55;;;4.72;;
73859;SDS011;62197;51.632;13.700;2023-05-23T11:42:56;8.75;;;5.68;;
73859;SDS011;62197;51.632;13.700;2023-05-23T11:45:21;7.78;;;5.95;;
73859;SDS011;62197;51.632;13.700;2023-05-23T11:47:47;7.32;;;5.43;;
73859;SDS011;62197;51.632;13.700;2023-05-23T11:50:13;9.60;;;6.03;;
73859;SDS011;62197;51.632;13.700;2023-05-23T11:52:39;9.18;;;5.15;;
73859;SDS011;62197;51.632;13.700;2023-05-23T11:55:08;8.05;;;5.20;;
73859;SDS011;62197;51.632;13.700;2023-05-23T11:57:37;7.18;;;4.13;;
73859;SDS011;62197;51.632;13.700;2023-05-23T12:00:04;8.63;;;5.38;;
73859;SDS011;62197;51.632;13.700;2023-05-23T12:02:31;10.55;;;5.65;;
73859;SDS011;62197;51.632;13.700;2023-05-23T12:05:06;7.03;;;4.63;;
73859;SDS011;62197;51.632;13.700;2023-05-23T12:07:39;6.03;;;4.65;;
73859;SDS011;62197;51.632;13.700;2023-05-23T12:10:05;7.22;;;4.70;;
73859;SDS011;62197;51.632;13.700;2023-05-23T12:12:31;8.02;;;5.53;;
73859;SDS011;62197;51.632;13.700;2023-05-23T12:14:57;6.45;;;5.05;;
73859;SDS011;62197;51.632;13.700;2023-05-23T12:17:22;8.32;;;4.40;;
73859;SDS011;62197;51.632;13.700;2023-05-23T12:19:48;7.15;;;5.63;;
73859;SDS011;62197;51.632;13.700;2023-05-23T12:22:13;7.65;;;4.82;;
73859;SDS011;62197;51.632;13.700;2023-05-23T12:24:43;6.55;;;5.20;;
73859;SDS011;62197;51.632;13.700;2023-05-23T12:27:10;7.28;;;5.15;;
73859;SDS011;62197;51.632;13.700;2023-05-23T12:29:35;7.13;;;4.82;;
73859;SDS011;62197;51.632;13.700;2023-05-23T12:32:03;6.80;;;5.45;;
73859;SDS011;62197;51.632;13.700;2023-05-23T12:34:31;6.53;;;5.40;;
73859;SDS011;62197;51.632;13.700;2023-05-23T12:36:57;7.85;;;5.80;;
73859;SDS011;62197;51.632;13.700;2023-05-23T12:39:23;7.93;;;6.20;;
73859;SDS011;62197;51.632;13.700;2023-05-23T12:41:51;8.18;;;5.35;;
73859;SDS011;62197;51.632;13.700;2023-05-23T12:44:16;9.68;;;5.50;;
73859;SDS011;62197;51.632;13.700;2023-05-23T12:46:41;8.20;;;5.85;;
73859;SDS011;62197;51.632;13.700;2023-05-23T12:49:07;7.20;;;5.57;;
73859;SDS011;62197;51.632;13.700;2023-05-23T12:51:32;7.97;;;6.47;;
73859;SDS011;62197;51.632;13.700;2023-05-23T12:53:58;8.05;;;5.75;;
73859;SDS011;62197;51.632;13.700;2023-05-23T12:56:23;7.72;;;6.03;;
73859;SDS011;62197;51.632;13.700;2023-05-23T12:58:49;8.23;;;5.75;;
73859;SDS011;62197;51.632;13.700;2023-05-23T13:01:15;6.50;;;4.90;;
73859;SDS011;62197;51.632;13.700;2023-05-23T13:03:40;8.18;;;6.05;;
73859;SDS011;62197;51.632;13.700;2023-05-23T13:06:06;8.50;;;6.03;;
73859;SDS011;62197;51.632;13.700;2023-05-23T13:08:31;8.35;;;6.28;;
73859;SDS011;62197;51.632;13.700;2023-05-23T13:10:57;7.47;;;5.32;;
73859;SDS011;62197;51.632;13.700;2023-05-23T13:13:22;9.13;;;5.15;;
73859;SDS011;62197;51.632;13.700;2023-05-23T13:15:48;6.15;;;4.95;;
73859;SDS011;62197;51.632;13.700;2023-05-23T13:18:13;5.70;;;4.40;;
73859;SDS011;62197;51.632;13.700;2023-05-23T13:20:39;6.03;;;5.05;;
73859;SDS011;62197;51.632;13.700;2023-05-23T13:23:06;8.70;;;5.00;;
73859;SDS011;62197;51.632;13.700;2023-05-23T13:25:33;5.90;;;4.45;;
73859;SDS011;62197;51.632;13.700;2023-05-23T13:27:58;6.97;;;4.13;;
73859;SDS011;62197;51.632;13.700;2023-05-23T13:30:25;5.47;;;4.75;;
73859;SDS011;62197;51.632;13.700;2023-05-23T13:32:50;5.25;;;4.40;;
73859;SDS011;62197;51.632;13.700;2023-05-23T13:35:15;6.07;;;4.82;;
73859;SDS011;62197;51.632;13.700;2023-05-23T13:37:41;5.30;;;4.20;;
73859;SDS011;62197;51.632;13.700;2023-05-23T13:40:06;6.40;;;4.78;;
73859;SDS011;62197;51.632;13.700;2023-05-23T13:42:36;8.77;;;5.40;;
73859;SDS011;62197;51.632;13.700;2023-05-23T13:45:01;5.30;;;4.18;;
73859;SDS011;62197;51.632;13.700;2023-05-23T13:47:26;6.65;;;4.50;;
73859;SDS011;62197;51.632;13.700;2023-05-23T13:49:52;7.13;;;5.00;;
73859;SDS011;62197;51.632;13.700;2023-05-23T13:52:17;6.63;;;4.00;;
73859;SDS011;62197;51.632;13.700;2023-05-23T13:54:44;6.80;;;4.97;;
73859;SDS011;62197;51.632;13.700;2023-05-23T13:57:10;5.97;;;3.85;;
73859;SDS011;62197;51.632;13.700;2023-05-23T13:59:35;4.40;;;2.92;;
73859;SDS011;62197;51.632;13.700;2023-05-23T14:02:00;5.78;;;4.20;;
73859;SDS011;62197;51.632;13.700;2023-05-23T14:04:26;5.55;;;4.25;;
73859;SDS011;62197;51.632;13.700;2023-05-23T14:06:51;5.50;;;4.30;;
73859;SDS011;62197;51.632;13.700;2023-05-23T14:09:17;4.93;;;4.03;;
73859;SDS011;62197;51.632;13.700;2023-05-23T14:11:42;4.55;;;3.90;;
73859;SDS011;62197;51.632;13.700;2023-05-23T14:14:08;7.15;;;4.85;;
73859;SDS011;62197;51.632;13.700;2023-05-23T14:16:33;6.75;;;4.13;;
73859;SDS011;62197;51.632;13.700;2023-05-23T14:18:58;6.00;;;4.30;;
73859;SDS011;62197;51.632;13.700;2023-05-23T14:21:24;8.18;;;5.10;;
73859;SDS011;62197;51.632;13.700;2023-05-23T14:23:49;7.57;;;4.45;;
73859;SDS011;62197;51.632;13.700;2023-05-23T14:26:15;6.65;;;4.70;;
73859;SDS011;62197;51.632;13.700;2023-05-23T14:28:40;6.88;;;4.68;;
73859;SDS011;62197;51.632;13.700;2023-05-23T14:31:05;7.55;;;4.13;;
73859;SDS011;62197;51.632;13.700;2023-05-23T14:33:31;7.22;;;5.22;;
73859;SDS011;62197;51.632;13.700;2023-05-23T14:35:56;7.65;;;5.22;;
73859;SDS011;62197;51.632;13.700;2023-05-23T14:38:23;7.15;;;5.50;;
73859;SDS011;62197;51.632;13.700;2023-05-23T14:40:48;7.20;;;5.40;;
73859;SDS011;62197;51.632;13.700;2023-05-23T14:43:14;7.90;;;5.50;;